Time;durP1;ratioP1;P1;durP2;ratioP2;P2;SDS_P1;SDS_P2;PMS_P1;PMS_P2;Temp;Humidity;BMP_temperature;BMP_pressure;BME280_temperature;BME280_humidity;BME280_pressure;Samples;Min_cycle;Max_cycle;Signal;HPM_P1;HPM_P2
2023/02/12 00:01:09;;;;;;;23.97;19.93;;;8.30;99.90;;;;;;5014272;28;20432;-70
2023/02/12 00:03:40;;;;;;;27.43;18.87;;;8.30;99.90;;;;;;5014534;28;20424;-70
2023/02/12 00:06:10;;;;;;;28.13;20.40;;;8.30;99.90;;;;;;5014825;28;20424;-70
2023/02/12 00:08:41;;;;;;;24.60;21.80;;;8.30;99.90;;;;;;4996563;28;20545;-70
2023/02/12 00:11:12;;;;;;;23.47;20.87;;;8.30;99.90;;;;;;5014246;28;20942;-70
2023/02/12 00:13:41;;;;;;;25.80;21.83;;;8.30;99.90;;;;;;5014360;28;20466;-70
2023/02/12 00:16:11;;;;;;;26.53;21.83;;;8.30;99.90;;;;;;5014055;28;20946;-70
2023/02/12 00:18:40;;;;;;;24.77;21.37;;;8.30;99.90;;;;;;5013973;28;20539;-70
2023/02/12 00:21:08;;;;;;;24.73;22.23;;;8.20;99.90;;;;;;5014189;28;20446;-69
2023/02/12 00:23:37;;;;;;;27.23;23.13;;;8.20;99.90;;;;;;5013887;28;20808;-69
2023/02/12 00:26:07;;;;;;;24.60;21.00;;;8.20;99.90;;;;;;5014106;28;20475;-69
2023/02/12 00:28:35;;;;;;;23.00;20.50;;;8.20;99.90;;;;;;5013841;28;20471;-69
2023/02/12 00:31:07;;;;;;;23.60;21.10;;;8.20;99.90;;;;;;4996211;28;21053;-69
2023/02/12 00:33:36;;;;;;;26.63;22.10;;;8.20;99.90;;;;;;4996027;28;21061;-69
2023/02/12 00:36:06;;;;;;;25.73;22.43;;;8.20;99.90;;;;;;4996128;28;20602;-69
2023/02/12 00:38:35;;;;;;;25.40;22.90;;;8.20;99.90;;;;;;4995612;28;20855;-69
2023/02/12 00:41:04;;;;;;;24.93;22.37;;;8.20;99.90;;;;;;4996152;28;20455;-69
2023/02/12 00:43:33;;;;;;;25.40;22.17;;;8.20;99.90;;;;;;4996065;28;20790;-69
2023/02/12 00:46:01;;;;;;;26.90;24.00;;;8.20;99.90;;;;;;5013979;28;20444;-69
2023/02/12 00:48:29;;;;;;;26.33;23.23;;;8.20;99.90;;;;;;4995984;28;20451;-69
2023/02/12 00:50:57;;;;;;;25.90;23.20;;;8.20;99.90;;;;;;5013799;28;20976;-69
2023/02/12 00:53:29;;;;;;;26.87;24.13;;;8.20;99.90;;;;;;4995822;28;20471;-69
2023/02/12 00:55:57;;;;;;;26.67;23.67;;;8.20;99.90;;;;;;5013522;28;20443;-70
2023/02/12 00:58:26;;;;;;;27.27;24.00;;;8.20;99.90;;;;;;4995835;28;20479;-70
2023/02/12 01:00:54;;;;;;;29.20;24.30;;;8.20;99.90;;;;;;4995815;28;20985;-70
2023/02/12 01:03:23;;;;;;;27.73;24.77;;;8.20;99.90;;;;;;4995689;28;20812;-70
2023/02/12 01:05:52;;;;;;;30.60;25.93;;;8.10;99.90;;;;;;5013965;28;20934;-70
2023/02/12 01:08:21;;;;;;;28.00;25.00;;;8.10;99.90;;;;;;5013671;28;20934;-69
2023/02/12 01:10:57;;;;;;;29.30;26.07;;;8.10;99.90;;;;;;4995716;28;20563;-69
2023/02/12 01:13:26;;;;;;;28.03;24.90;;;8.10;99.90;;;;;;4995620;28;21008;-69
2023/02/12 01:16:07;;;;;;;29.10;25.10;;;8.10;99.90;;;;;;4995751;28;20457;-70
2023/02/12 01:18:36;;;;;;;28.27;25.30;;;8.10;99.90;;;;;;5013329;28;20445;-70
2023/02/12 01:21:10;;;;;;;31.50;28.00;;;8.10;99.90;;;;;;5013562;28;20815;-69
2023/02/12 01:23:38;;;;;;;29.77;25.10;;;8.10;99.90;;;;;;5013282;28;20478;-69
2023/02/12 01:26:10;;;;;;;29.33;25.37;;;8.10;99.90;;;;;;4995637;28;20448;-69
2023/02/12 01:28:39;;;;;;;29.27;26.10;;;8.10;99.90;;;;;;5013164;28;20433;-70
2023/02/12 01:31:10;;;;;;;33.73;27.53;;;8.10;99.90;;;;;;4995612;28;20538;-70
2023/02/12 01:33:38;;;;;;;31.17;27.77;;;8.10;99.90;;;;;;4995422;28;20502;-70
2023/02/12 01:36:07;;;;;;;30.67;27.47;;;8.00;99.90;;;;;;4995590;28;20444;-70
2023/02/12 01:38:35;;;;;;;33.90;26.20;;;8.00;99.90;;;;;;5013174;28;20427;-70
2023/02/12 01:41:05;;;;;;;30.97;26.83;;;8.00;99.90;;;;;;5013337;28;20446;-70
2023/02/12 01:43:35;;;;;;;33.40;28.87;;;8.00;99.90;;;;;;4995486;28;20519;-70
2023/02/12 01:46:06;;;;;;;30.27;27.27;;;8.00;99.90;;;;;;5013112;28;20448;-70
2023/02/12 01:48:38;;;;;;;30.93;27.10;;;8.00;99.90;;;;;;4995398;28;20469;-70
2023/02/12 01:51:09;;;;;;;32.70;27.87;;;7.90;99.90;;;;;;4998904;28;20791;-70
2023/02/12 01:53:41;;;;;;;31.33;28.13;;;8.00;99.90;;;;;;5016939;28;20449;-70
2023/02/12 01:56:09;;;;;;;32.60;27.60;;;7.90;99.90;;;;;;4999111;28;20497;-70
2023/02/12 01:58:42;;;;;;;30.93;27.50;;;8.00;99.90;;;;;;4999013;28;20455;-70
2023/02/12 02:01:15;;;;;;;33.20;28.43;;;8.00;99.90;;;;;;4998986;28;20444;-70
2023/02/12 02:03:45;;;;;;;25.10;22.40;;;7.90;99.90;;;;;;4998992;28;20454;-70
2023/02/12 02:06:22;;;;;;;31.37;27.77;;;7.90;99.90;;;;;;5016768;28;20506;-70
2023/02/12 02:08:50;;;;;;;32.77;28.10;;;7.90;99.90;;;;;;4999090;28;20957;-70
2023/02/12 02:17:00;;;;;;;30.40;27.27;;;7.90;99.90;;;;;;4998713;28;20451;-70
2023/02/12 02:19:44;;;;;;;29.13;26.13;;;7.90;99.90;;;;;;5016433;28;20959;-70
2023/02/12 02:22:23;;;;;;;28.80;25.70;;;7.90;99.90;;;;;;5016201;28;20419;-70
2023/02/12 02:25:19;;;;;;;27.87;24.90;;;7.80;99.90;;;;;;4998589;28;20485;-70
2023/02/12 02:27:58;;;;;;;29.90;26.90;;;7.90;99.90;;;;;;4998464;28;20534;-70
2023/02/12 02:30:35;;;;;;;28.77;25.87;;;7.80;99.90;;;;;;5016252;28;20852;-70
2023/02/12 02:33:20;;;;;;;28.57;25.57;;;7.90;99.90;;;;;;5016182;28;20458;-70
2023/02/12 02:35:55;;;;;;;28.67;25.80;;;7.90;99.90;;;;;;5016242;28;20423;-70
2023/02/12 02:38:33;;;;;;;31.00;27.80;;;7.80;99.90;;;;;;4998279;28;20451;-70
2023/02/12 02:41:05;;;;;;;31.60;28.27;;;7.80;99.90;;;;;;5016076;28;20462;-70
2023/02/12 02:43:38;;;;;;;29.27;26.07;;;7.80;99.90;;;;;;5016023;28;20462;-70
2023/02/12 02:46:11;;;;;;;29.60;26.60;;;7.80;99.90;;;;;;5015768;28;20419;-70
2023/02/12 02:48:45;;;;;;;29.43;25.90;;;7.80;99.90;;;;;;4998018;28;20487;-70
2023/02/12 02:51:16;;;;;;;30.30;25.90;;;7.80;99.90;;;;;;5015646;28;20455;-70
2023/02/12 02:53:48;;;;;;;30.10;27.00;;;7.80;99.90;;;;;;5015751;28;20481;-70
2023/02/12 02:56:21;;;;;;;29.80;26.60;;;7.80;99.90;;;;;;4997900;28;20446;-70
2023/02/12 02:58:55;;;;;;;25.30;22.17;;;7.70;99.90;;;;;;5015361;28;20554;-70
2023/02/12 03:01:30;;;;;;;29.10;26.00;;;7.70;99.90;;;;;;4997431;28;20447;-70
2023/02/12 03:04:03;;;;;;;31.87;28.33;;;7.70;99.90;;;;;;5015984;28;20580;-70
2023/02/12 03:06:38;;;;;;;32.53;27.87;;;7.70;99.90;;;;;;5015342;28;20437;-70
2023/02/12 03:09:16;;;;;;;30.73;26.47;;;7.70;99.90;;;;;;5015466;28;20467;-70
2023/02/12 03:11:44;;;;;;;31.70;28.40;;;7.70;99.90;;;;;;4997665;28;20822;-70
2023/02/12 03:14:17;;;;;;;34.43;26.90;;;7.70;99.90;;;;;;5015121;28;20474;-70
2023/02/12 03:16:53;;;;;;;34.47;27.57;;;7.70;99.90;;;;;;5015444;28;20482;-70
2023/02/12 03:19:24;;;;;;;29.57;26.13;;;7.70;99.90;;;;;;5015262;28;20466;-70
2023/02/12 03:21:58;;;;;;;33.57;27.20;;;7.70;99.90;;;;;;4997462;28;20502;-70
2023/02/12 03:24:30;;;;;;;29.27;25.97;;;7.70;99.90;;;;;;4997544;28;20444;-70
2023/02/12 03:27:06;;;;;;;30.97;26.27;;;7.70;99.90;;;;;;5015845;28;20753;-70
2023/02/12 03:29:35;;;;;;;29.73;26.10;;;7.70;99.90;;;;;;4997281;28;20473;-70
2023/02/12 03:32:20;;;;;;;31.07;27.10;;;7.70;99.90;;;;;;5015368;28;20525;-70
2023/02/12 03:34:53;;;;;;;30.60;25.60;;;7.70;99.90;;;;;;5015072;28;20465;-70
2023/02/12 03:37:29;;;;;;;30.63;25.97;;;7.70;99.90;;;;;;5014849;28;20460;-70
2023/02/12 03:40:06;;;;;;;31.07;26.10;;;7.70;99.90;;;;;;5014619;28;20860;-70
2023/02/12 03:42:39;;;;;;;28.07;24.00;;;7.70;99.90;;;;;;5014731;28;20428;-70
2023/02/12 03:45:16;;;;;;;32.37;25.90;;;7.70;99.90;;;;;;5014886;28;20465;-70
2023/02/12 03:47:51;;;;;;;34.17;25.53;;;7.70;99.90;;;;;;5014651;28;20899;-70
2023/02/12 03:50:24;;;;;;;28.70;24.97;;;7.70;99.90;;;;;;4997040;28;20835;-70
2023/02/12 03:52:52;;;;;;;32.30;27.23;;;7.70;99.90;;;;;;4996976;28;20445;-69
2023/02/12 03:55:20;;;;;;;32.50;24.43;;;7.70;99.90;;;;;;5014366;28;20992;-70
2023/02/12 03:57:53;;;;;;;34.03;27.67;;;7.70;99.90;;;;;;5014492;28;20945;-70
2023/02/12 04:00:23;;;;;;;34.43;25.50;;;7.70;99.90;;;;;;5014894;28;20484;-70
2023/02/12 04:02:54;;;;;;;28.47;24.30;;;7.70;99.90;;;;;;4996794;28;20455;-70
2023/02/12 04:05:24;;;;;;;34.37;24.93;;;7.70;99.90;;;;;;5014633;28;20442;-70
2023/02/12 04:07:55;;;;;;;36.17;26.13;;;7.70;99.90;;;;;;5014293;28;20429;-70
2023/02/12 04:10:31;;;;;;;34.10;25.40;;;7.70;99.90;;;;;;4996837;28;20478;-70
2023/02/12 04:13:09;;;;;;;34.50;25.20;;;7.70;99.90;;;;;;5013597;28;20417;-70
2023/02/12 04:15:57;;;;;;;33.10;26.13;;;7.70;99.90;;;;;;5014324;28;20790;-70
2023/02/12 04:18:33;;;;;;;32.70;26.43;;;7.70;99.90;;;;;;5014707;28;20774;-70
2023/02/12 04:21:08;;;;;;;33.30;25.50;;;7.70;99.90;;;;;;5013983;28;20468;-70
2023/02/12 04:23:47;;;;;;;30.87;25.23;;;7.70;99.90;;;;;;5014506;28;20950;-70
2023/02/12 04:26:28;;;;;;;34.97;26.70;;;7.70;99.90;;;;;;4996325;28;20542;-70
2023/02/12 04:29:09;;;;;;;30.47;24.00;;;7.70;99.90;;;;;;5014216;28;20425;-70
2023/02/12 04:31:43;;;;;;;30.90;25.30;;;7.70;99.90;;;;;;5014172;28;20444;-70
2023/02/12 04:34:18;;;;;;;29.27;23.87;;;7.70;99.90;;;;;;4996178;28;20848;-70
2023/02/12 04:36:53;;;;;;;30.50;25.60;;;7.70;99.90;;;;;;5013911;28;20465;-70
2023/02/12 04:39:25;;;;;;;29.50;23.43;;;7.70;99.90;;;;;;5013678;28;20511;-70
2023/02/12 04:41:54;;;;;;;29.07;25.57;;;7.70;99.90;;;;;;5014351;28;20888;-69
2023/02/12 04:44:24;;;;;;;30.53;25.87;;;7.70;99.90;;;;;;5014086;28;20474;-70
2023/02/12 04:46:53;;;;;;;26.70;23.80;;;7.70;99.90;;;;;;5015036;28;20437;-69
2023/02/12 04:49:23;;;;;;;29.87;24.97;;;7.70;99.90;;;;;;4999454;28;20568;-69
2023/02/12 04:51:52;;;;;;;29.53;24.20;;;7.70;99.90;;;;;;4996925;28;20439;-70
2023/02/12 04:54:21;;;;;;;29.10;24.53;;;7.70;99.90;;;;;;5013809;28;20439;-70
2023/02/12 04:56:50;;;;;;;31.37;24.17;;;7.80;99.90;;;;;;4996022;28;20455;-70
2023/02/12 04:59:18;;;;;;;29.20;24.67;;;7.80;99.90;;;;;;5013430;28;20476;-69
2023/02/12 05:01:46;;;;;;;27.30;23.27;;;7.80;99.90;;;;;;5013578;28;20442;-69
2023/02/12 05:04:16;;;;;;;31.23;24.77;;;7.80;99.90;;;;;;4995826;28;20981;-70
2023/02/12 05:06:47;;;;;;;30.80;24.50;;;7.80;99.90;;;;;;4998421;28;20450;-69
2023/02/12 05:09:17;;;;;;;29.47;24.80;;;7.80;99.90;;;;;;5018321;28;20474;-69
2023/02/12 05:11:45;;;;;;;31.60;25.07;;;7.80;99.90;;;;;;5018492;28;20425;-69
2023/02/12 05:14:15;;;;;;;30.03;25.47;;;7.80;99.90;;;;;;5017874;28;20451;-69
2023/02/12 05:16:43;;;;;;;27.80;24.80;;;7.80;99.90;;;;;;5016797;28;20968;-69
2023/02/12 05:19:11;;;;;;;29.50;25.97;;;7.80;99.90;;;;;;5015527;28;20461;-69
2023/02/12 05:21:39;;;;;;;31.23;25.50;;;7.80;99.90;;;;;;4998884;28;20452;-69
2023/02/12 05:24:09;;;;;;;31.97;26.13;;;7.80;99.90;;;;;;5017974;28;20458;-69
2023/02/12 05:26:37;;;;;;;29.60;24.80;;;7.80;99.90;;;;;;5019435;28;20943;-69
2023/02/12 05:29:06;;;;;;;34.10;26.97;;;7.80;99.90;;;;;;5018479;28;20459;-69
2023/02/12 05:31:34;;;;;;;30.43;25.30;;;7.80;99.90;;;;;;5019082;28;20447;-69
2023/02/12 05:34:02;;;;;;;33.83;27.17;;;7.70;99.90;;;;;;5018644;28;20433;-69
2023/02/12 05:36:30;;;;;;;33.30;26.47;;;7.80;99.90;;;;;;5000577;28;20479;-70
2023/02/12 05:38:59;;;;;;;32.03;27.30;;;7.80;99.90;;;;;;5017913;28;20419;-69
2023/02/12 05:41:33;;;;;;;35.90;27.63;;;7.70;99.90;;;;;;5017982;28;20454;-69
2023/02/12 05:44:02;;;;;;;31.33;25.63;;;7.80;99.90;;;;;;5017221;28;20428;-69
2023/02/12 05:46:31;;;;;;;35.07;28.00;;;7.80;99.90;;;;;;5016909;28;20435;-70
2023/02/12 05:48:59;;;;;;;34.07;27.00;;;7.80;99.90;;;;;;5016688;28;20442;-70
2023/02/12 05:51:27;;;;;;;35.20;26.60;;;7.80;99.90;;;;;;5016817;28;20851;-70
2023/02/12 05:53:59;;;;;;;33.63;28.63;;;7.80;99.90;;;;;;5016694;28;20442;-70
2023/02/12 05:56:30;;;;;;;34.17;28.33;;;7.80;99.90;;;;;;5017149;28;20464;-70
2023/02/12 05:59:01;;;;;;;34.87;29.20;;;7.80;99.90;;;;;;5016791;28;20423;-70
2023/02/12 06:01:31;;;;;;;34.53;28.27;;;7.70;99.90;;;;;;5016613;28;20454;-70
2023/02/12 06:04:00;;;;;;;34.57;27.10;;;7.70;99.90;;;;;;5016603;28;20424;-70
2023/02/12 06:06:28;;;;;;;36.13;28.30;;;7.70;99.90;;;;;;5016506;28;20435;-69
2023/02/12 06:08:57;;;;;;;32.23;26.40;;;7.70;99.90;;;;;;5016441;28;20527;-70
2023/02/12 06:11:25;;;;;;;30.33;27.03;;;7.70;99.90;;;;;;5016685;28;20443;-70
2023/02/12 06:13:55;;;;;;;38.33;29.17;;;7.70;99.90;;;;;;5016490;28;20438;-70
2023/02/12 06:16:25;;;;;;;38.10;28.97;;;7.70;99.90;;;;;;5016502;28;20470;-70
2023/02/12 06:18:54;;;;;;;37.70;28.90;;;7.70;99.90;;;;;;5016796;28;20423;-70
2023/02/12 06:21:23;;;;;;;40.40;29.57;;;7.70;99.90;;;;;;5016293;28;20853;-70
2023/02/12 06:23:52;;;;;;;34.27;29.10;;;7.80;99.90;;;;;;4998583;28;20457;-69
2023/02/12 06:26:21;;;;;;;38.70;28.80;;;7.70;99.90;;;;;;5016095;28;20486;-70
2023/02/12 06:28:49;;;;;;;36.43;29.23;;;7.70;99.90;;;;;;5016303;28;20505;-69
2023/02/12 06:31:21;;;;;;;36.77;28.50;;;7.70;99.90;;;;;;5016039;28;20443;-70
2023/02/12 06:33:50;;;;;;;41.23;28.77;;;7.70;99.90;;;;;;5015987;28;20424;-70
2023/02/12 06:36:19;;;;;;;36.93;29.23;;;7.70;99.90;;;;;;4997293;28;20474;-70
2023/02/12 06:38:48;;;;;;;37.70;29.23;;;7.70;99.90;;;;;;5015796;28;20423;-70
2023/02/12 06:41:16;;;;;;;43.70;31.20;;;7.70;99.90;;;;;;4998303;28;20460;-70
2023/02/12 06:43:44;;;;;;;49.30;29.37;;;7.70;99.90;;;;;;5015775;28;20538;-70
2023/02/12 06:46:13;;;;;;;47.83;30.70;;;7.70;99.90;;;;;;5016328;28;20439;-70
2023/02/12 06:48:42;;;;;;;48.97;32.23;;;7.70;99.90;;;;;;5015839;28;20443;-69
2023/02/12 06:51:12;;;;;;;48.00;31.37;;;7.70;99.90;;;;;;5015613;28;20496;-70
2023/02/12 06:53:40;;;;;;;47.33;31.57;;;7.70;99.90;;;;;;5015579;28;20446;-70
2023/02/12 06:56:11;;;;;;;52.40;32.30;;;7.70;99.90;;;;;;4998006;28;20475;-70
2023/02/12 06:58:41;;;;;;;46.53;31.20;;;7.70;99.90;;;;;;5015742;28;20889;-70
2023/02/12 07:01:12;;;;;;;47.63;31.63;;;7.70;99.90;;;;;;5015736;28;20451;-70
2023/02/12 07:03:41;;;;;;;45.57;29.87;;;7.70;99.90;;;;;;5015642;28;20447;-70
2023/02/12 07:06:11;;;;;;;51.20;32.37;;;7.70;99.90;;;;;;5015345;28;20447;-70
2023/02/12 07:08:39;;;;;;;43.10;29.10;;;7.70;99.90;;;;;;5015304;28;20442;-69
2023/02/12 07:11:08;;;;;;;47.00;31.30;;;7.70;99.90;;;;;;4997721;28;20447;-70
2023/02/12 07:13:36;;;;;;;47.80;33.20;;;7.70;99.90;;;;;;4997593;28;20453;-70
2023/02/12 07:16:06;;;;;;;50.13;31.37;;;7.70;99.90;;;;;;5015123;28;20558;-70
2023/02/12 07:18:35;;;;;;;48.97;32.83;;;7.70;99.90;;;;;;4997603;28;20457;-70
2023/02/12 07:21:06;;;;;;;55.60;33.53;;;7.70;99.90;;;;;;5015006;28;20988;-70
2023/02/12 07:23:35;;;;;;;49.77;32.47;;;7.70;99.90;;;;;;4997476;28;20438;-70
2023/02/12 07:26:06;;;;;;;44.93;30.60;;;7.70;99.90;;;;;;5015278;28;20433;-69
2023/02/12 07:28:35;;;;;;;50.60;29.67;;;7.70;99.90;;;;;;4997413;28;20442;-69
2023/02/12 07:31:07;;;;;;;48.27;32.20;;;7.70;99.90;;;;;;5014860;28;20978;-70
2023/02/12 07:33:35;;;;;;;44.80;31.00;;;7.70;99.90;;;;;;5015437;28;20420;-70
2023/02/12 07:36:08;;;;;;;47.13;31.47;;;7.70;99.90;;;;;;4997129;28;20467;-70
2023/02/12 07:38:38;;;;;;;44.27;30.30;;;7.70;99.90;;;;;;5015337;28;20432;-70
2023/02/12 07:41:08;;;;;;;44.27;30.40;;;7.70;99.90;;;;;;5015331;28;20510;-70
2023/02/12 07:43:38;;;;;;;43.67;31.83;;;7.70;99.90;;;;;;4997031;28;20452;-70
2023/02/12 07:46:08;;;;;;;42.80;31.30;;;7.70;99.90;;;;;;5014630;28;20440;-70
2023/02/12 07:48:36;;;;;;;50.43;30.30;;;7.70;99.90;;;;;;4997055;28;20446;-70
2023/02/12 07:51:08;;;;;;;45.43;30.23;;;7.70;99.90;;;;;;5014761;28;20524;-72
2023/02/12 07:53:37;;;;;;;43.93;29.87;;;7.70;99.90;;;;;;5014777;28;20416;-71
2023/02/12 07:56:10;;;;;;;42.53;29.57;;;7.70;99.90;;;;;;5014656;28;20824;-71
2023/02/12 07:58:39;;;;;;;41.30;28.40;;;7.80;99.90;;;;;;4996727;28;20946;-71
2023/02/12 08:01:16;;;;;;;45.03;29.50;;;7.80;99.90;;;;;;5014335;28;20443;-71
2023/02/12 08:03:45;;;;;;;40.13;28.87;;;7.80;99.90;;;;;;4996760;28;20551;-71
2023/02/12 08:06:16;;;;;;;37.53;27.80;;;7.70;99.90;;;;;;5014252;28;20451;-71
2023/02/12 08:08:45;;;;;;;43.80;29.27;;;7.80;99.90;;;;;;5014204;28;20511;-70
2023/02/12 08:11:15;;;;;;;41.70;27.37;;;7.80;99.90;;;;;;5014181;28;20446;-70
2023/02/12 08:13:44;;;;;;;38.00;25.13;;;7.80;99.90;;;;;;5014131;28;20438;-71
2023/02/12 08:16:15;;;;;;;36.80;25.40;;;7.80;99.90;;;;;;4996661;28;20835;-71
2023/02/12 08:18:44;;;;;;;36.63;25.80;;;7.80;99.90;;;;;;5014275;28;20434;-71
2023/02/12 08:21:15;;;;;;;31.90;24.70;;;7.80;99.90;;;;;;4996448;28;20451;-70
2023/02/12 08:23:43;;;;;;;37.13;25.40;;;7.80;99.90;;;;;;4996454;28;20516;-70
2023/02/12 08:26:13;;;;;;;28.63;24.33;;;7.80;99.90;;;;;;5013863;28;20452;-70
2023/02/12 08:28:43;;;;;;;31.07;23.00;;;7.90;99.90;;;;;;5014082;28;20427;-71
2023/02/12 08:31:14;;;;;;;28.57;22.10;;;7.90;99.90;;;;;;4996180;28;20433;-71
2023/02/12 08:33:44;;;;;;;28.70;21.17;;;7.80;99.90;;;;;;5014404;28;20517;-71
2023/02/12 08:36:16;;;;;;;31.57;22.67;;;7.90;99.90;;;;;;5013849;28;20543;-72
2023/02/12 08:38:47;;;;;;;30.50;21.50;;;7.90;99.90;;;;;;4996079;28;20469;-71
2023/02/12 08:41:17;;;;;;;23.77;19.83;;;7.90;99.90;;;;;;5013610;28;20953;-71
2023/02/12 08:43:49;;;;;;;23.80;19.93;;;7.90;99.90;;;;;;4996106;28;20433;-71
2023/02/12 08:46:19;;;;;;;24.70;19.57;;;7.90;99.90;;;;;;5013904;28;20433;-71
2023/02/12 08:48:48;;;;;;;25.20;19.30;;;7.90;99.90;;;;;;5014441;28;20438;-71
2023/02/12 08:51:19;;;;;;;22.40;18.20;;;8.00;99.90;;;;;;5013657;28;20451;-71
2023/02/12 08:53:51;;;;;;;24.00;19.40;;;8.00;99.90;;;;;;5013874;28;20416;-71
2023/02/12 08:56:20;;;;;;;23.87;19.73;;;8.00;99.90;;;;;;5013763;28;20453;-71
2023/02/12 08:58:48;;;;;;;23.60;18.80;;;8.00;99.90;;;;;;4995407;28;20801;-71
2023/02/12 09:01:22;;;;;;;24.50;18.63;;;8.00;99.90;;;;;;5013421;28;20439;-71
2023/02/12 09:03:53;;;;;;;23.23;18.67;;;8.00;99.90;;;;;;4995959;28;20449;-71
2023/02/12 09:06:24;;;;;;;22.13;17.90;;;8.10;99.90;;;;;;4995826;28;20814;-71
2023/02/12 09:08:54;;;;;;;22.83;18.30;;;8.10;99.90;;;;;;5013764;28;20419;-71
2023/02/12 09:11:29;;;;;;;23.30;18.30;;;8.10;99.90;;;;;;5013997;28;20443;-71
2023/02/12 09:13:59;;;;;;;20.07;17.90;;;8.10;99.90;;;;;;4995915;28;20845;-71
2023/02/12 09:16:29;;;;;;;19.93;17.30;;;8.10;99.90;;;;;;5013537;28;20544;-71
2023/02/12 09:18:58;;;;;;;19.87;16.10;;;8.10;99.90;;;;;;4995739;28;20547;-71
2023/02/12 09:21:27;;;;;;;21.83;17.47;;;8.20;99.90;;;;;;4995785;28;20455;-71
2023/02/12 09:23:56;;;;;;;19.73;16.80;;;8.20;99.90;;;;;;5013546;28;20802;-71
2023/02/12 09:26:25;;;;;;;18.90;17.00;;;8.20;99.90;;;;;;5013430;28;20538;-70
2023/02/12 09:28:54;;;;;;;18.10;16.20;;;8.20;99.90;;;;;;5013180;28;20448;-70
2023/02/12 09:31:25;;;;;;;17.70;15.90;;;8.20;99.90;;;;;;4995577;28;20451;-70
2023/02/12 09:33:55;;;;;;;18.27;16.33;;;8.20;99.90;;;;;;4995577;28;20444;-70
2023/02/12 09:36:23;;;;;;;19.63;16.10;;;8.30;99.90;;;;;;5013047;28;20842;-70
2023/02/12 09:38:53;;;;;;;17.90;16.00;;;8.30;99.90;;;;;;5012994;28;20467;-70
2023/02/12 09:41:42;;;;;;;15.87;14.17;;;8.40;99.90;;;;;;5013431;28;20443;-70
2023/02/12 09:44:20;;;;;;;15.20;13.63;;;8.30;99.90;;;;;;5013349;28;20455;-70
2023/02/12 09:46:53;;;;;;;14.43;12.93;;;8.40;99.90;;;;;;4995481;28;20454;-70
2023/02/12 09:49:37;;;;;;;12.33;11.03;;;8.40;99.90;;;;;;4995434;28;20863;-70
2023/02/12 09:52:12;;;;;;;14.03;12.47;;;8.40;99.90;;;;;;4995719;28;20799;-70
2023/02/12 09:54:43;;;;;;;15.03;12.60;;;8.40;99.90;;;;;;4995430;28;20457;-70
2023/02/12 09:57:18;;;;;;;14.10;12.60;;;8.50;99.90;;;;;;4995299;28;20496;-70
2023/02/12 09:59:51;;;;;;;14.07;12.50;;;8.50;99.90;;;;;;5013079;28;20808;-70
2023/02/12 10:02:21;;;;;;;13.70;11.70;;;8.50;99.90;;;;;;5013459;28;20844;-70
2023/02/12 10:04:51;;;;;;;13.80;11.33;;;8.50;99.90;;;;;;5013189;28;20420;-70
2023/02/12 10:07:48;;;;;;;12.97;11.00;;;8.60;99.90;;;;;;4995309;28;20534;-70
2023/02/12 10:10:31;;;;;;;11.03;9.87;;;8.60;99.90;;;;;;5012947;28;20451;-70
2023/02/12 10:13:04;;;;;;;12.00;10.70;;;8.60;99.90;;;;;;5016666;28;20426;-70
2023/02/12 10:15:38;;;;;;;11.37;10.17;;;8.60;99.90;;;;;;5016601;28;20422;-70
2023/02/12 10:18:19;;;;;;;11.60;10.40;;;8.60;99.90;;;;;;5016545;28;20842;-70
2023/02/12 10:21:05;;;;;;;11.17;9.83;;;8.70;99.90;;;;;;4998745;28;20470;-70
2023/02/12 10:23:57;;;;;;;11.63;10.43;;;8.70;99.90;;;;;;5016228;28;20463;-70
2023/02/12 10:26:30;;;;;;;12.03;10.83;;;8.70;99.90;;;;;;4998598;28;20443;-70
2023/02/12 10:29:05;;;;;;;11.40;10.20;;;8.80;99.90;;;;;;4998469;28;20447;-70
2023/02/12 10:31:37;;;;;;;10.03;8.93;;;8.80;99.90;;;;;;5016131;28;20443;-70
2023/02/12 10:34:16;;;;;;;9.60;8.30;;;8.80;99.90;;;;;;5016295;28;20420;-70
2023/02/12 10:36:47;;;;;;;10.37;9.27;;;8.80;99.90;;;;;;5016217;28;20475;-70
2023/02/12 10:39:21;;;;;;;10.20;9.20;;;8.80;99.90;;;;;;4998186;28;20495;-70
2023/02/12 10:41:56;;;;;;;9.30;8.40;;;8.80;99.90;;;;;;4999145;28;20445;-70
2023/02/12 10:44:24;;;;;;;9.33;8.37;;;8.90;99.90;;;;;;5016354;28;20522;-70
2023/02/12 10:46:53;;;;;;;10.03;9.00;;;8.90;99.90;;;;;;4998115;28;20454;-70
2023/02/12 10:49:21;;;;;;;7.80;7.00;;;8.90;99.90;;;;;;5015677;28;20494;-70
2023/02/12 10:52:00;;;;;;;10.40;9.33;;;8.90;99.90;;;;;;4998068;28;20455;-71
2023/02/12 10:54:42;;;;;;;9.80;8.80;;;8.90;99.90;;;;;;5015925;28;20510;-70
2023/02/12 10:57:15;;;;;;;11.00;9.17;;;8.90;99.90;;;;;;5016051;28;20416;-70
2023/02/12 10:59:44;;;;;;;11.30;10.20;;;9.00;99.90;;;;;;5015518;28;20887;-70
2023/02/12 11:02:27;;;;;;;12.37;11.00;;;9.00;99.90;;;;;;5015411;28;20439;-70
2023/02/12 11:04:57;;;;;;;13.50;12.17;;;9.00;99.90;;;;;;4997895;28;20455;-70
2023/02/12 11:07:28;;;;;;;14.33;12.83;;;9.00;99.90;;;;;;5015901;28;20419;-70
2023/02/12 11:09:57;;;;;;;13.93;12.63;;;9.00;99.90;;;;;;5015264;28;20467;-70
2023/02/12 11:12:35;;;;;;;16.53;13.97;;;9.00;99.90;;;;;;4997717;28;20498;-70
2023/02/12 11:15:12;;;;;;;14.77;12.60;;;9.00;99.90;;;;;;4997679;28;20455;-70
2023/02/12 11:17:43;;;;;;;14.90;13.40;;;9.00;99.90;;;;;;4997864;28;20450;-70
2023/02/12 11:20:25;;;;;;;15.00;13.43;;;9.00;99.90;;;;;;5015237;28;20456;-70
2023/02/12 11:22:56;;;;;;;16.23;14.37;;;9.10;99.90;;;;;;4997298;28;20483;-70
2023/02/12 11:25:26;;;;;;;15.20;13.60;;;9.10;99.90;;;;;;4997538;28;20547;-70
2023/02/12 11:28:16;;;;;;;15.33;13.83;;;9.10;99.90;;;;;;5015129;28;20503;-70
2023/02/12 11:30:53;;;;;;;15.37;13.37;;;9.10;99.90;;;;;;4997380;28;20464;-70
2023/02/12 11:33:30;;;;;;;16.07;14.47;;;9.10;99.90;;;;;;5015304;28;20981;-70
2023/02/12 11:36:02;;;;;;;16.33;14.70;;;9.10;99.90;;;;;;5015447;28;20420;-70
2023/02/12 11:38:38;;;;;;;18.20;16.10;;;9.10;99.90;;;;;;5014720;28;20459;-70
2023/02/12 11:41:24;;;;;;;16.90;14.80;;;9.10;99.90;;;;;;4997214;28;20938;-70
2023/02/12 11:43:54;;;;;;;16.60;14.87;;;9.10;99.90;;;;;;4997214;28;20448;-70
2023/02/12 11:46:25;;;;;;;17.90;16.00;;;9.10;99.90;;;;;;5014911;28;20442;-70
2023/02/12 11:48:55;;;;;;;17.00;15.30;;;9.10;99.90;;;;;;5014785;28;20443;-70
2023/02/12 11:51:28;;;;;;;19.13;16.67;;;9.20;99.90;;;;;;4997543;28;20966;-70
2023/02/12 11:53:59;;;;;;;18.53;16.53;;;9.10;99.90;;;;;;4997016;28;20458;-70
2023/02/12 11:56:42;;;;;;;18.33;16.40;;;9.20;99.90;;;;;;5014543;28;20412;-70
2023/02/12 11:59:25;;;;;;;17.17;15.37;;;9.20;99.90;;;;;;5014323;28;21042;-70
2023/02/12 12:01:56;;;;;;;17.30;15.50;;;9.20;99.90;;;;;;5014708;28;20420;-70
2023/02/12 12:04:27;;;;;;;17.00;15.13;;;9.20;99.90;;;;;;5014372;28;20432;-70
2023/02/12 12:07:00;;;;;;;20.00;17.70;;;9.20;99.90;;;;;;4996698;28;20447;-70
2023/02/12 12:09:35;;;;;;;18.93;16.93;;;9.20;99.90;;;;;;5014551;28;20456;-70
2023/02/12 12:12:12;;;;;;;20.07;17.83;;;9.20;99.90;;;;;;5014604;28;20416;-70
2023/02/12 12:20:30;;;;;;;18.80;16.90;;;9.30;99.90;;;;;;4984118;28;20499;-70
2023/02/12 12:23:03;;;;;;;19.33;17.30;;;9.30;99.90;;;;;;5014382;28;20443;-70
2023/02/12 12:25:38;;;;;;;19.30;17.37;;;9.30;99.90;;;;;;5014321;28;20511;-70
2023/02/12 12:28:25;;;;;;;19.27;17.13;;;9.30;99.90;;;;;;5014228;28;20863;-70
2023/02/12 12:31:02;;;;;;;19.50;17.43;;;9.30;99.90;;;;;;5013872;28;20970;-70
2023/02/12 12:33:37;;;;;;;19.60;17.70;;;9.30;99.90;;;;;;5013494;28;20879;-70
2023/02/12 12:37:01;;;;;;;17.20;15.40;;;9.30;99.90;;;;;;4996199;28;20471;-70
2023/02/12 12:39:35;;;;;;;17.47;15.67;;;9.30;99.90;;;;;;4953650;29;20497;-70
2023/02/12 12:42:32;;;;;;;17.97;16.17;;;9.30;99.90;;;;;;5014577;28;20457;-70
2023/02/12 12:45:11;;;;;;;19.80;15.80;;;9.30;99.90;;;;;;5014004;28;20416;-70
2023/02/12 12:47:55;;;;;;;17.50;15.33;;;9.30;99.90;;;;;;5013692;28;20432;-70
2023/02/12 12:50:46;;;;;;;17.53;15.20;;;9.30;99.90;;;;;;5013567;28;20451;-69
2023/02/12 12:53:31;;;;;;;17.10;15.30;;;9.40;99.90;;;;;;5013604;28;20440;-70
2023/02/12 12:56:29;;;;;;;18.13;16.30;;;9.40;99.90;;;;;;5013557;28;20420;-70
2023/02/12 12:59:15;;;;;;;17.10;15.40;;;9.40;99.90;;;;;;5013650;28;20455;-70
2023/02/12 13:02:04;;;;;;;18.80;16.47;;;9.40;99.90;;;;;;5013597;28;20427;-70
2023/02/12 13:04:55;;;;;;;21.60;19.50;;;9.50;99.90;;;;;;5013508;28;20841;-70
2023/02/12 13:07:41;;;;;;;20.17;18.10;;;9.50;99.90;;;;;;4995962;28;20826;-70
2023/02/12 13:10:19;;;;;;;22.00;19.00;;;9.50;99.90;;;;;;5013678;28;20459;-70
2023/02/12 13:13:00;;;;;;;21.23;19.00;;;9.50;99.90;;;;;;5013726;28;20436;-70
2023/02/12 13:15:36;;;;;;;20.00;18.00;;;9.50;99.90;;;;;;5013425;28;20422;-70
2023/02/12 13:18:14;;;;;;;20.40;18.30;;;9.50;99.90;;;;;;5013639;28;20427;-70